Time;durP1;ratioP1;P1;durP2;ratioP2;P2;SDS_P1;SDS_P2;PMS_P1;PMS_P2;Temp;Humidity;BMP_temperature;BMP_pressure;BME280_temperature;BME280_humidity;BME280_pressure;Samples;Min_cycle;Max_cycle;Signal;HPM_P1;HPM_P2
2021/12/04 00:01:09;;;;;;;9.65;4.45;;;;;;;;;;4991576;28;20042;-58
2021/12/04 00:03:35;;;;;;;11.43;4.57;;;;;;;;;;4990252;28;20047;-56
2021/12/04 00:06:06;;;;;;;10.10;4.57;;;;;;;;;;4991413;28;20046;-58
2021/12/04 00:08:35;;;;;;;10.80;4.30;;;;;;;;;;4990085;28;20125;-59
2021/12/04 00:11:01;;;;;;;9.85;4.63;;;;;;;;;;4990745;28;20042;-59
2021/12/04 00:13:27;;;;;;;9.90;4.15;;;;;;;;;;4990259;28;20039;-60
2021/12/04 00:15:53;;;;;;;10.20;3.97;;;;;;;;;;4988747;28;20058;-61
2021/12/04 00:18:19;;;;;;;10.52;4.00;;;;;;;;;;4989993;28;20130;-59
2021/12/04 00:20:45;;;;;;;8.52;4.00;;;;;;;;;;4989797;28;20232;-60
2021/12/04 00:23:11;;;;;;;8.07;4.00;;;;;;;;;;4989903;28;20057;-58
2021/12/04 00:25:38;;;;;;;9.43;3.53;;;;;;;;;;4988252;28;20129;-59
2021/12/04 00:28:04;;;;;;;8.40;3.70;;;;;;;;;;4999008;28;20109;-59
2021/12/04 00:30:30;;;;;;;6.78;3.78;;;;;;;;;;4990001;28;21612;-58
2021/12/04 00:33:06;;;;;;;9.15;3.83;;;;;;;;;;5009998;28;20033;-58
2021/12/04 00:35:44;;;;;;;7.28;3.88;;;;;;;;;;4991855;28;20081;-58
2021/12/04 00:49:13;;;;;;;9.02;4.22;;;;;;;;;;5009394;28;20053;-59
2021/12/04 00:51:55;;;;;;;8.07;4.22;;;;;;;;;;5008671;28;20054;-59
2021/12/04 00:54:24;;;;;;;10.35;4.22;;;;;;;;;;5009078;28;20455;-59
2021/12/04 00:56:50;;;;;;;7.57;4.22;;;;;;;;;;5008260;28;20791;-58
2021/12/04 00:59:16;;;;;;;13.40;5.35;;;;;;;;;;5007849;28;20045;-60
2021/12/04 01:01:43;;;;;;;10.70;4.88;;;;;;;;;;5008696;28;20045;-58
2021/12/04 01:04:10;;;;;;;11.70;5.15;;;;;;;;;;5008701;28;20045;-60
2021/12/04 01:06:35;;;;;;;9.65;5.53;;;;;;;;;;5007795;28;20072;-59
2021/12/04 01:09:01;;;;;;;11.50;5.05;;;;;;;;;;5008717;28;20563;-59
2021/12/04 01:11:27;;;;;;;14.18;5.07;;;;;;;;;;5008018;28;20055;-59
2021/12/04 01:13:53;;;;;;;7.85;4.15;;;;;;;;;;5008060;28;20052;-57
2021/12/04 01:16:19;;;;;;;9.73;4.57;;;;;;;;;;5008930;28;20022;-59
2021/12/04 01:18:45;;;;;;;9.48;3.75;;;;;;;;;;4988294;28;20065;-59
2021/12/04 01:21:11;;;;;;;8.60;4.35;;;;;;;;;;5008260;28;20041;-60
2021/12/04 01:23:37;;;;;;;6.95;3.53;;;;;;;;;;5007856;28;20108;-57
2021/12/04 01:26:03;;;;;;;7.47;3.97;;;;;;;;;;5008520;28;20044;-58
2021/12/04 01:28:29;;;;;;;8.95;4.03;;;;;;;;;;5006542;28;20049;-59
2021/12/04 01:30:55;;;;;;;8.82;4.28;;;;;;;;;;5007533;28;20077;-59
2021/12/04 01:33:21;;;;;;;8.82;4.05;;;;;;;;;;5007446;28;20038;-60
2021/12/04 01:35:47;;;;;;;9.90;4.50;;;;;;;;;;5007892;28;20033;-59
2021/12/04 01:38:13;;;;;;;13.70;5.03;;;;;;;;;;5007479;28;20037;-59
2021/12/04 01:40:39;;;;;;;10.45;4.72;;;;;;;;;;5006391;28;20056;-60
2021/12/04 01:43:05;;;;;;;18.73;4.95;;;;;;;;;;5009645;28;20055;-60
2021/12/04 01:45:31;;;;;;;9.73;4.32;;;;;;;;;;5008843;28;20041;-60
2021/12/04 01:48:01;;;;;;;8.30;3.90;;;;;;;;;;5007559;28;20057;-59
2021/12/04 01:50:27;;;;;;;12.40;4.75;;;;;;;;;;5006923;28;20045;-57
2021/12/04 01:52:56;;;;;;;8.43;4.20;;;;;;;;;;5008819;28;20215;-57
2021/12/04 01:55:25;;;;;;;8.65;3.92;;;;;;;;;;5006261;28;20057;-60
2021/12/04 01:57:51;;;;;;;11.35;4.78;;;;;;;;;;5006003;28;20098;-60
2021/12/04 02:00:17;;;;;;;10.40;3.97;;;;;;;;;;5007685;28;20038;-58
2021/12/04 02:02:43;;;;;;;10.45;3.90;;;;;;;;;;5004958;28;20122;-56
2021/12/04 02:05:09;;;;;;;15.88;5.45;;;;;;;;;;5006457;28;20116;-60
2021/12/04 02:07:35;;;;;;;19.05;5.90;;;;;;;;;;5005152;28;20042;-55
2021/12/04 02:10:04;;;;;;;10.40;4.50;;;;;;;;;;5006461;28;20471;-59
2021/12/04 02:12:29;;;;;;;8.85;4.63;;;;;;;;;;4988116;28;20038;-56
2021/12/04 02:14:55;;;;;;;9.05;3.88;;;;;;;;;;5006715;28;20499;-55
2021/12/04 02:17:21;;;;;;;11.55;4.95;;;;;;;;;;5006163;28;20046;-57
2021/12/04 02:19:47;;;;;;;7.38;4.18;;;;;;;;;;5006918;28;20064;-58
2021/12/04 02:22:13;;;;;;;12.90;4.35;;;;;;;;;;5009085;28;20038;-58
2021/12/04 02:24:39;;;;;;;10.32;4.72;;;;;;;;;;5007337;28;20049;-55
2021/12/04 02:27:05;;;;;;;9.95;4.07;;;;;;;;;;5007397;28;20037;-57
2021/12/04 02:29:31;;;;;;;7.47;3.95;;;;;;;;;;5006630;28;20050;-58
2021/12/04 02:31:58;;;;;;;11.45;4.47;;;;;;;;;;5006605;28;20125;-59
2021/12/04 02:34:25;;;;;;;6.50;3.70;;;;;;;;;;5005859;28;20132;-54
2021/12/04 02:36:51;;;;;;;11.50;4.38;;;;;;;;;;5006279;28;20049;-57
2021/12/04 02:39:22;;;;;;;22.83;4.45;;;;;;;;;;5006195;28;20045;-57
2021/12/04 02:41:48;;;;;;;13.18;4.07;;;;;;;;;;5007309;28;20038;-58
2021/12/04 02:44:14;;;;;;;9.18;3.33;;;;;;;;;;5006945;28;20530;-56
2021/12/04 02:46:40;;;;;;;8.35;4.22;;;;;;;;;;5004166;28;20049;-59
2021/12/04 02:49:07;;;;;;;19.30;3.95;;;;;;;;;;5006323;28;20041;-56
2021/12/04 02:51:33;;;;;;;6.60;3.60;;;;;;;;;;5005577;28;20411;-58
2021/12/04 02:53:59;;;;;;;9.43;4.45;;;;;;;;;;5006751;28;20045;-58
2021/12/04 02:56:26;;;;;;;12.23;4.15;;;;;;;;;;5005010;28;20046;-58
2021/12/04 02:58:56;;;;;;;11.07;4.63;;;;;;;;;;4987702;28;20152;-57
2021/12/04 03:01:22;;;;;;;8.15;3.63;;;;;;;;;;5005346;28;20135;-56
2021/12/04 03:03:48;;;;;;;11.45;4.25;;;;;;;;;;5008173;28;20499;-53
2021/12/04 03:06:14;;;;;;;11.38;5.47;;;;;;;;;;5006646;28;20124;-58
2021/12/04 03:08:40;;;;;;;15.70;4.88;;;;;;;;;;5005248;28;20033;-54
2021/12/04 03:11:06;;;;;;;12.60;4.47;;;;;;;;;;5005268;28;20048;-56
2021/12/04 03:13:32;;;;;;;8.43;4.13;;;;;;;;;;5005949;28;20041;-56
2021/12/04 03:15:59;;;;;;;11.45;4.85;;;;;;;;;;5007034;28;20042;-57
2021/12/04 03:18:26;;;;;;;15.57;4.28;;;;;;;;;;5003907;28;20042;-58
2021/12/04 03:20:54;;;;;;;15.70;4.63;;;;;;;;;;5006063;28;20044;-56
2021/12/04 03:23:30;;;;;;;10.82;4.85;;;;;;;;;;5006847;28;20045;-59
2021/12/04 03:25:58;;;;;;;14.15;4.95;;;;;;;;;;5009719;28;20062;-55
2021/12/04 03:28:25;;;;;;;14.38;4.63;;;;;;;;;;5009441;28;20037;-55
2021/12/04 03:31:08;;;;;;;7.50;3.90;;;;;;;;;;5010399;28;20052;-57
2021/12/04 03:41:46;;;;;;;9.68;3.70;;;;;;;;;;5010016;28;20178;-59
2021/12/04 03:44:12;;;;;;;10.77;3.40;;;;;;;;;;5011057;28;20124;-58
2021/12/04 03:46:38;;;;;;;7.80;3.40;;;;;;;;;;5010238;28;20045;-59
2021/12/04 03:49:04;;;;;;;9.07;3.50;;;;;;;;;;5010149;28;20044;-58
2021/12/04 03:51:30;;;;;;;6.70;3.58;;;;;;;;;;5012150;28;20049;-58
2021/12/04 03:53:56;;;;;;;7.93;4.25;;;;;;;;;;5010511;28;20083;-59
2021/12/04 03:56:23;;;;;;;11.02;3.97;;;;;;;;;;5008230;28;20030;-58
2021/12/04 03:58:49;;;;;;;13.85;3.95;;;;;;;;;;5008466;28;20037;-58
2021/12/04 04:01:15;;;;;;;5.05;2.50;;;;;;;;;;4991701;28;20064;-57
2021/12/04 04:03:41;;;;;;;7.35;3.15;;;;;;;;;;5008527;28;20042;-58
2021/12/04 04:06:07;;;;;;;8.73;3.60;;;;;;;;;;5010396;28;20038;-57
2021/12/04 04:08:32;;;;;;;8.93;3.58;;;;;;;;;;5008182;28;20048;-58
2021/12/04 04:10:59;;;;;;;5.57;3.03;;;;;;;;;;5008709;28;20065;-59
2021/12/04 04:13:25;;;;;;;5.18;2.85;;;;;;;;;;5008125;28;20121;-58
2021/12/04 04:15:51;;;;;;;10.52;3.80;;;;;;;;;;5009100;28;20502;-59
2021/12/04 04:18:17;;;;;;;5.32;2.97;;;;;;;;;;5008855;28;20037;-58
2021/12/04 04:20:43;;;;;;;8.93;3.63;;;;;;;;;;5009784;28;20128;-59
2021/12/04 04:23:09;;;;;;;7.65;3.33;;;;;;;;;;5010840;28;20092;-59
2021/12/04 04:25:35;;;;;;;9.25;3.67;;;;;;;;;;5009049;28;20145;-59
2021/12/04 04:28:00;;;;;;;9.05;3.53;;;;;;;;;;5009688;28;20514;-59
2021/12/04 04:30:26;;;;;;;6.65;3.20;;;;;;;;;;5008559;28;20109;-58
2021/12/04 04:32:54;;;;;;;8.95;2.92;;;;;;;;;;5010389;28;20487;-60
2021/12/04 04:35:23;;;;;;;6.97;3.03;;;;;;;;;;5009911;28;20045;-59
2021/12/04 05:13:22;;;;;;;11.23;3.08;;;;;;;;;;4974509;28;20084;-58
2021/12/04 05:20:51;;;;;;;11.10;3.15;;;;;;;;;;5008058;28;20494;-57
2021/12/04 05:23:18;;;;;;;9.02;3.08;;;;;;;;;;5010098;28;20088;-58
2021/12/04 05:25:44;;;;;;;6.28;2.60;;;;;;;;;;5007026;28;20400;-59
2021/12/04 05:28:10;;;;;;;11.50;3.85;;;;;;;;;;5008363;28;20084;-59
2021/12/04 05:30:36;;;;;;;9.75;3.05;;;;;;;;;;5006988;28;20048;-57
2021/12/04 05:33:02;;;;;;;13.65;3.25;;;;;;;;;;5007873;28;20037;-58
2021/12/04 05:35:28;;;;;;;12.73;3.13;;;;;;;;;;5007497;28;20049;-59
2021/12/04 05:37:54;;;;;;;8.48;3.05;;;;;;;;;;5009091;28;20096;-58
2021/12/04 05:40:20;;;;;;;11.30;3.22;;;;;;;;;;5007933;28;20066;-59
2021/12/04 05:42:46;;;;;;;6.57;2.85;;;;;;;;;;5009139;28;20048;-59
2021/12/04 05:45:19;;;;;;;5.03;2.10;;;;;;;;;;5007230;28;20030;-59
2021/12/04 05:47:55;;;;;;;7.90;2.80;;;;;;;;;;5006752;28;20041;-58
2021/12/04 05:51:13;;;;;;;6.30;2.90;;;;;;;;;;5005666;28;20037;-59
2021/12/04 05:55:52;;;;;;;5.50;2.50;;;;;;;;;;5008050;28;20053;-58
2021/12/04 05:58:19;;;;;;;4.85;2.33;;;;;;;;;;5007499;28;20041;-56
2021/12/04 06:00:45;;;;;;;6.50;2.22;;;;;;;;;;5007038;28;20049;-58
2021/12/04 06:03:12;;;;;;;10.18;2.60;;;;;;;;;;5007622;28;20107;-57
2021/12/04 06:05:38;;;;;;;5.90;2.58;;;;;;;;;;5007457;28;20080;-58
2021/12/04 06:08:04;;;;;;;5.75;2.65;;;;;;;;;;5006007;28;20044;-57
2021/12/04 06:10:30;;;;;;;6.93;3.40;;;;;;;;;;5006557;28;20038;-59
2021/12/04 06:12:56;;;;;;;9.55;2.67;;;;;;;;;;5008589;28;20587;-59
2021/12/04 06:15:21;;;;;;;13.02;2.60;;;;;;;;;;5007066;28;20164;-58
2021/12/04 06:17:51;;;;;;;7.25;2.97;;;;;;;;;;5006929;28;20042;-57
2021/12/04 06:23:02;;;;;;;5.80;2.42;;;;;;;;;;5006041;28;20153;-57
2021/12/04 06:25:28;;;;;;;10.32;2.97;;;;;;;;;;5005642;28;20037;-59
2021/12/04 06:27:54;;;;;;;7.65;2.70;;;;;;;;;;5007178;28;20559;-59
2021/12/04 06:30:21;;;;;;;6.80;3.08;;;;;;;;;;5004851;28;20597;-57
2021/12/04 06:32:48;;;;;;;8.75;2.50;;;;;;;;;;5008475;28;20090;-59
2021/12/04 06:35:16;;;;;;;9.18;3.13;;;;;;;;;;5007784;28;20053;-59
2021/12/04 06:37:42;;;;;;;5.63;2.53;;;;;;;;;;5005274;28;20037;-60
2021/12/04 06:40:11;;;;;;;5.82;2.20;;;;;;;;;;5006712;28;20131;-60
2021/12/04 06:42:37;;;;;;;6.18;3.00;;;;;;;;;;5005451;28;20042;-58
2021/12/04 06:45:04;;;;;;;11.38;3.28;;;;;;;;;;5008536;28;20041;-58
2021/12/04 06:47:32;;;;;;;5.90;2.00;;;;;;;;;;4985706;28;20052;-59
2021/12/04 06:50:04;;;;;;;10.75;2.63;;;;;;;;;;5006852;28;20120;-60
2021/12/04 06:52:30;;;;;;;11.05;2.67;;;;;;;;;;5005110;28;20170;-59
2021/12/04 06:54:59;;;;;;;10.90;2.40;;;;;;;;;;4989070;28;20160;-60
2021/12/04 06:57:25;;;;;;;10.05;3.20;;;;;;;;;;5007964;28;20088;-59
2021/12/04 06:59:53;;;;;;;5.78;2.30;;;;;;;;;;5011662;28;20041;-60
2021/12/04 07:02:20;;;;;;;8.75;3.35;;;;;;;;;;5011883;28;20049;-60
2021/12/04 07:04:46;;;;;;;15.00;3.40;;;;;;;;;;5010219;28;20372;-58
2021/12/04 07:07:12;;;;;;;11.25;3.65;;;;;;;;;;5009436;28;20052;-56
2021/12/04 07:09:38;;;;;;;18.00;3.40;;;;;;;;;;5010210;28;21908;-59
2021/12/04 07:12:04;;;;;;;10.48;3.40;;;;;;;;;;5009703;28;20397;-60
2021/12/04 07:14:31;;;;;;;7.75;2.65;;;;;;;;;;5010775;28;20046;-59
2021/12/04 07:16:57;;;;;;;8.18;3.08;;;;;;;;;;5011104;28;20042;-59
2021/12/04 07:19:23;;;;;;;8.65;3.03;;;;;;;;;;5010422;28;20095;-60
2021/12/04 07:21:49;;;;;;;10.88;2.97;;;;;;;;;;5010791;28;20042;-58
2021/12/04 07:24:16;;;;;;;7.18;2.55;;;;;;;;;;5011639;28;20117;-59
2021/12/04 07:26:42;;;;;;;11.05;2.97;;;;;;;;;;5009536;28;20584;-58
2021/12/04 07:29:08;;;;;;;10.65;3.13;;;;;;;;;;5011323;28;20054;-61
2021/12/04 07:31:34;;;;;;;6.68;2.10;;;;;;;;;;5010749;28;20046;-57
2021/12/04 07:34:00;;;;;;;6.72;2.38;;;;;;;;;;5010425;28;20053;-59
2021/12/04 07:36:26;;;;;;;11.48;2.47;;;;;;;;;;5009486;28;20064;-56
2021/12/04 07:38:52;;;;;;;14.18;2.13;;;;;;;;;;5011101;28;20247;-59
2021/12/04 07:41:18;;;;;;;4.93;2.03;;;;;;;;;;5009465;28;20124;-58
2021/12/04 07:43:44;;;;;;;5.43;2.20;;;;;;;;;;5011115;28;20047;-58
2021/12/04 07:46:10;;;;;;;6.63;2.13;;;;;;;;;;5009482;28;20257;-57
2021/12/04 07:48:36;;;;;;;5.25;2.03;;;;;;;;;;5009665;28;20604;-59
2021/12/04 07:51:02;;;;;;;6.47;1.83;;;;;;;;;;5011083;28;20049;-60
2021/12/04 07:53:32;;;;;;;7.45;2.17;;;;;;;;;;5010959;28;20040;-58
2021/12/04 07:55:58;;;;;;;10.13;2.30;;;;;;;;;;5012331;28;20053;-59
2021/12/04 07:58:25;;;;;;;5.85;2.35;;;;;;;;;;5011774;28;20095;-59
2021/12/04 08:00:51;;;;;;;4.15;1.80;;;;;;;;;;5010130;28;20045;-59
2021/12/04 08:03:16;;;;;;;4.75;1.95;;;;;;;;;;5009248;28;22043;-59
2021/12/04 08:05:43;;;;;;;7.20;2.33;;;;;;;;;;5009396;28;20132;-60
2021/12/04 08:08:09;;;;;;;4.55;2.08;;;;;;;;;;5009055;28;20100;-60
2021/12/04 08:10:36;;;;;;;7.35;2.00;;;;;;;;;;5010322;28;20046;-59
2021/12/04 08:13:03;;;;;;;6.00;1.90;;;;;;;;;;5012198;28;20140;-59
2021/12/04 08:15:29;;;;;;;4.13;1.60;;;;;;;;;;5010743;28;20049;-59
2021/12/04 08:17:55;;;;;;;6.88;2.70;;;;;;;;;;5009630;28;20108;-59
2021/12/04 08:20:21;;;;;;;5.00;1.90;;;;;;;;;;5010605;28;20751;-59
2021/12/04 08:22:47;;;;;;;10.30;1.88;;;;;;;;;;5008984;28;20042;-59
2021/12/04 08:25:14;;;;;;;6.25;2.33;;;;;;;;;;5010401;28;20030;-60
2021/12/04 08:27:41;;;;;;;3.72;1.65;;;;;;;;;;5010076;28;20057;-60
2021/12/04 08:30:08;;;;;;;5.43;2.00;;;;;;;;;;5010350;28;20064;-59
2021/12/04 08:32:34;;;;;;;7.03;2.33;;;;;;;;;;5010165;28;20093;-59
2021/12/04 08:35:02;;;;;;;6.72;1.83;;;;;;;;;;5009216;28;20498;-57
2021/12/04 08:37:28;;;;;;;6.40;1.67;;;;;;;;;;5010798;28;21790;-59
2021/12/04 08:39:54;;;;;;;4.93;1.80;;;;;;;;;;5010363;28;20124;-59
2021/12/04 08:42:20;;;;;;;10.70;2.40;;;;;;;;;;5011422;28;20125;-58
2021/12/04 08:44:47;;;;;;;4.68;1.60;;;;;;;;;;5011020;28;20048;-58
2021/12/04 08:47:13;;;;;;;7.57;2.00;;;;;;;;;;4996127;28;20490;-59
2021/12/04 08:49:38;;;;;;;4.55;1.58;;;;;;;;;;5010816;28;20106;-59
2021/12/04 08:52:05;;;;;;;5.80;2.05;;;;;;;;;;5012475;28;20060;-59
2021/12/04 08:54:32;;;;;;;4.93;2.10;;;;;;;;;;5011661;28;20053;-58
2021/12/04 08:56:58;;;;;;;4.65;1.90;;;;;;;;;;5010749;28;20123;-58
2021/12/04 08:59:24;;;;;;;7.07;1.92;;;;;;;;;;5010281;28;20397;-57
2021/12/04 09:01:50;;;;;;;4.93;1.80;;;;;;;;;;5008887;28;20041;-59
2021/12/04 09:04:25;;;;;;;9.60;2.03;;;;;;;;;;5008049;28;20041;-57
2021/12/04 09:06:54;;;;;;;10.95;1.92;;;;;;;;;;5006263;28;20452;-57
2021/12/04 09:09:20;;;;;;;12.85;1.90;;;;;;;;;;5009430;28;20095;-58
2021/12/04 09:11:59;;;;;;;3.17;1.33;;;;;;;;;;5009045;28;20040;-58
2021/12/04 09:14:31;;;;;;;4.22;1.45;;;;;;;;;;5009512;28;20041;-57
2021/12/04 09:17:06;;;;;;;5.63;1.83;;;;;;;;;;5008618;28;20046;-56
2021/12/04 09:19:33;;;;;;;13.65;2.20;;;;;;;;;;5008148;28;20034;-53
2021/12/04 09:21:59;;;;;;;6.63;2.30;;;;;;;;;;5010327;28;20502;-58
2021/12/04 09:24:28;;;;;;;12.77;1.73;;;;;;;;;;5008812;28;20371;-58
2021/12/04 09:27:03;;;;;;;3.60;1.40;;;;;;;;;;5007832;28;20183;-58
2021/12/04 09:30:01;;;;;;;4.93;2.03;;;;;;;;;;5008380;28;20045;-57
2021/12/04 09:33:15;;;;;;;5.78;2.13;;;;;;;;;;5007416;28;20076;-58
2021/12/04 10:02:18;;;;;;;4.20;1.83;;;;;;;;;;5008699;28;20119;-58
2021/12/04 10:18:41;;;;;;;7.85;2.13;;;;;;;;;;5013251;28;20037;-59
2021/12/04 10:35:05;;;;;;;4.18;1.58;;;;;;;;;;5006530;28;20493;-58
2021/12/04 10:37:31;;;;;;;5.18;2.00;;;;;;;;;;5006728;28;20041;-56
2021/12/04 10:40:00;;;;;;;7.15;2.60;;;;;;;;;;5007047;28;20784;-59
2021/12/04 10:42:34;;;;;;;5.75;1.80;;;;;;;;;;5005524;28;20053;-58
2021/12/04 10:45:01;;;;;;;4.88;1.98;;;;;;;;;;5007165;28;20045;-59
2021/12/04 10:47:28;;;;;;;5.47;1.90;;;;;;;;;;5005402;28;20630;-59
2021/12/04 10:53:19;;;;;;;5.13;1.90;;;;;;;;;;5004996;28;20038;-57
2021/12/04 10:55:40;;;;;;;4.35;1.90;;;;;;;;;;4995348;28;20057;-59
2021/12/04 11:00:42;;;;;;;8.90;2.08;;;;;;;;;;5004716;28;20038;-56
2021/12/04 11:22:20;;;;;;;9.45;2.33;;;;;;;;;;5005299;28;20037;-59
2021/12/04 11:41:33;;;;;;;6.22;2.70;;;;;;;;;;5008110;28;20104;-59
2021/12/04 11:44:06;;;;;;;4.80;2.20;;;;;;;;;;5006614;28;20045;-58
2021/12/04 11:46:44;;;;;;;6.63;2.35;;;;;;;;;;5009131;28;20505;-60
2021/12/04 11:49:11;;;;;;;5.47;2.35;;;;;;;;;;5009103;28;20131;-56
2021/12/04 11:51:44;;;;;;;13.40;3.30;;;;;;;;;;5009238;28;20037;-58
2021/12/04 11:54:11;;;;;;;16.33;2.72;;;;;;;;;;5008851;28;20060;-59
2021/12/04 11:56:37;;;;;;;5.25;2.20;;;;;;;;;;5007036;28;20030;-57
2021/12/04 11:59:03;;;;;;;9.65;2.00;;;;;;;;;;5008961;28;20523;-58
2021/12/04 12:01:31;;;;;;;5.45;2.40;;;;;;;;;;5008765;28;20054;-59
2021/12/04 12:03:59;;;;;;;5.22;1.90;;;;;;;;;;5008653;28;20096;-59
2021/12/04 12:06:31;;;;;;;9.35;2.53;;;;;;;;;;5008678;28;20042;-59
2021/12/04 12:09:05;;;;;;;5.30;2.22;;;;;;;;;;5008503;28;20077;-57
2021/12/04 12:11:31;;;;;;;9.50;3.05;;;;;;;;;;5007742;28;20042;-58
2021/12/04 12:13:58;;;;;;;7.15;2.03;;;;;;;;;;5008200;28;20388;-58
2021/12/04 12:16:27;;;;;;;4.15;1.67;;;;;;;;;;5008128;28;20042;-59
2021/12/04 12:18:58;;;;;;;8.27;1.98;;;;;;;;;;5007903;28;20766;-58
2021/12/04 12:21:30;;;;;;;5.30;2.22;;;;;;;;;;5008713;28;20045;-58
2021/12/04 12:33:19;;;;;;;7.47;2.58;;;;;;;;;;4999625;28;20054;-58
2021/12/04 12:38:16;;;;;;;6.60;2.25;;;;;;;;;;5011265;28;20184;-56
2021/12/04 12:40:56;;;;;;;8.50;2.45;;;;;;;;;;5010587;28;20102;-57
2021/12/04 12:43:22;;;;;;;10.65;2.20;;;;;;;;;;5006974;28;20049;-58
2021/12/04 12:45:55;;;;;;;3.83;1.95;;;;;;;;;;5009134;28;20041;-57
2021/12/04 12:48:21;;;;;;;7.70;2.20;;;;;;;;;;5009655;28;20048;-58
2021/12/04 12:50:47;;;;;;;6.70;2.03;;;;;;;;;;5010066;28;20490;-58
2021/12/04 12:53:15;;;;;;;5.85;2.45;;;;;;;;;;4998422;28;20159;-60
2021/12/04 12:55:42;;;;;;;8.60;2.42;;;;;;;;;;5007491;28;20084;-58
2021/12/04 12:58:14;;;;;;;15.18;2.92;;;;;;;;;;5009538;28;20053;-59
2021/12/04 13:11:51;;;;;;;4.50;2.13;;;;;;;;;;5007675;28;20466;-60
2021/12/04 13:14:22;;;;;;;8.23;1.83;;;;;;;;;;5007159;28;20092;-56
2021/12/04 13:16:51;;;;;;;7.88;2.50;;;;;;;;;;5006689;28;20063;-59
2021/12/04 13:19:19;;;;;;;6.55;2.38;;;;;;;;;;5006614;28;20033;-58
2021/12/04 13:21:46;;;;;;;5.38;2.35;;;;;;;;;;5006594;28;20121;-55
2021/12/04 13:24:13;;;;;;;7.55;2.65;;;;;;;;;;5006595;28;20045;-57
2021/12/04 13:26:43;;;;;;;5.80;2.35;;;;;;;;;;5008697;28;20042;-58
2021/12/04 13:29:11;;;;;;;10.85;2.88;;;;;;;;;;5008394;28;20132;-59
2021/12/04 13:31:39;;;;;;;8.52;2.95;;;;;;;;;;5005670;28;20041;-59
2021/12/04 13:34:08;;;;;;;12.65;2.88;;;;;;;;;;5007217;28;20038;-60
2021/12/04 13:36:36;;;;;;;11.43;2.80;;;;;;;;;;5007063;28;20034;-59
2021/12/04 13:39:06;;;;;;;4.88;2.42;;;;;;;;;;5007328;28;20045;-56
2021/12/04 13:41:33;;;;;;;6.95;2.90;;;;;;;;;;5005984;28;20386;-58
2021/12/04 13:44:00;;;;;;;11.18;3.03;;;;;;;;;;5006408;28;20067;-60
2021/12/04 13:46:26;;;;;;;5.63;2.28;;;;;;;;;;5006549;28;20135;-59
2021/12/04 13:48:59;;;;;;;9.02;3.13;;;;;;;;;;5006983;28;20144;-56
2021/12/04 13:51:25;;;;;;;11.90;3.20;;;;;;;;;;5005441;28;20107;-58
2021/12/04 13:53:51;;;;;;;9.73;3.03;;;;;;;;;;5007280;28;20029;-57
2021/12/04 13:56:18;;;;;;;7.43;2.90;;;;;;;;;;4992200;28;20049;-59
2021/12/04 13:58:47;;;;;;;27.17;2.97;;;;;;;;;;5007635;28;20057;-58
2021/12/04 14:01:14;;;;;;;21.77;3.53;;;;;;;;;;5006766;28;20037;-57
2021/12/04 14:03:40;;;;;;;4.88;2.13;;;;;;;;;;5005153;28;20033;-58
2021/12/04 14:06:11;;;;;;;11.02;3.00;;;;;;;;;;5006295;28;20057;-58
2021/12/04 14:08:37;;;;;;;8.90;2.95;;;;;;;;;;5005634;28;20083;-59
2021/12/04 14:11:03;;;;;;;6.57;2.85;;;;;;;;;;5006918;28;20037;-59
2021/12/04 14:13:28;;;;;;;11.65;2.50;;;;;;;;;;5005625;28;20475;-58
2021/12/04 14:15:55;;;;;;;10.18;3.00;;;;;;;;;;5006484;28;20076;-58
2021/12/04 14:18:23;;;;;;;10.43;2.95;;;;;;;;;;5006888;28;20042;-55
2021/12/04 14:20:51;;;;;;;7.00;2.63;;;;;;;;;;5006476;28;20045;-58
2021/12/04 14:23:17;;;;;;;12.50;2.63;;;;;;;;;;5007628;28;20124;-57
2021/12/04 14:25:44;;;;;;;9.13;2.83;;;;;;;;;;4988037;28;20103;-58
2021/12/04 14:28:14;;;;;;;9.88;3.08;;;;;;;;;;5007650;28;20115;-57
2021/12/04 14:30:44;;;;;;;9.02;2.95;;;;;;;;;;4989061;28;20120;-58
2021/12/04 14:33:10;;;;;;;10.70;3.20;;;;;;;;;;5006499;28;20034;-58
2021/12/04 14:35:38;;;;;;;6.75;2.20;;;;;;;;;;5007148;28;20038;-58
2021/12/04 14:38:06;;;;;;;30.98;3.63;;;;;;;;;;5008475;28;20060;-58
2021/12/04 14:40:34;;;;;;;12.07;2.70;;;;;;;;;;5007472;28;20034;-58
2021/12/04 14:43:01;;;;;;;7.40;2.85;;;;;;;;;;5006011;28;20038;-57
2021/12/04 14:45:29;;;;;;;8.38;2.35;;;;;;;;;;4988668;28;20038;-54
2021/12/04 14:47:57;;;;;;;7.07;2.45;;;;;;;;;;4991267;28;20502;-57
2021/12/04 14:50:25;;;;;;;7.78;3.20;;;;;;;;;;5006557;28;20041;-58
2021/12/04 14:52:52;;;;;;;21.05;2.17;;;;;;;;;;5007896;28;20045;-57
2021/12/04 14:55:20;;;;;;;6.38;2.30;;;;;;;;;;5009564;28;20095;-58
2021/12/04 14:57:46;;;;;;;10.98;2.10;;;;;;;;;;5010812;28;20044;-59
2021/12/04 15:00:14;;;;;;;7.68;2.40;;;;;;;;;;5007364;28;20046;-59
2021/12/04 15:02:41;;;;;;;11.20;1.65;;;;;;;;;;5008578;28;20041;-61
2021/12/04 15:05:07;;;;;;;8.23;2.10;;;;;;;;;;5009935;28;20080;-60
2021/12/04 15:07:34;;;;;;;6.53;2.00;;;;;;;;;;4989467;28;20103;-60
2021/12/04 15:10:04;;;;;;;9.45;2.05;;;;;;;;;;5007165;28;20041;-57
2021/12/04 15:12:32;;;;;;;5.75;1.92;;;;;;;;;;5005440;28;20044;-57
2021/12/04 15:14:59;;;;;;;7.20;2.10;;;;;;;;;;5006863;28;20061;-57
2021/12/04 15:17:25;;;;;;;6.95;1.63;;;;;;;;;;5005799;28;20038;-58
2021/12/04 15:19:53;;;;;;;3.63;1.65;;;;;;;;;;5009876;28;20051;-58
2021/12/04 15:22:42;;;;;;;6.35;1.95;;;;;;;;;;5008244;28;20048;-59
2021/12/04 15:25:09;;;;;;;4.22;1.58;;;;;;;;;;5009569;28;20048;-58
2021/12/04 15:27:35;;;;;;;7.10;1.90;;;;;;;;;;5009493;28;20533;-58
2021/12/04 15:30:05;;;;;;;7.63;1.58;;;;;;;;;;5009608;28;20045;-58
2021/12/04 15:32:31;;;;;;;7.95;2.20;;;;;;;;;;5008737;28;20106;-57
2021/12/04 15:35:05;;;;;;;14.73;2.83;;;;;;;;;;5010940;28;20144;-56
2021/12/04 15:37:36;;;;;;;9.95;2.00;;;;;;;;;;5009278;28;20096;-59
2021/12/04 15:40:05;;;;;;;19.20;2.35;;;;;;;;;;5010877;28;20118;-58
2021/12/04 15:42:41;;;;;;;9.82;1.75;;;;;;;;;;5010564;28;20041;-59
2021/12/04 15:47:52;;;;;;;9.57;1.98;;;;;;;;;;5011003;28;20153;-60
2021/12/04 15:53:13;;;;;;;14.15;2.10;;;;;;;;;;5011493;28;20450;-54
2021/12/04 15:55:45;;;;;;;5.50;1.80;;;;;;;;;;5012759;28;20042;-58
2021/12/04 15:58:14;;;;;;;8.68;1.90;;;;;;;;;;5010656;28;20164;-59
2021/12/04 16:00:42;;;;;;;6.90;2.00;;;;;;;;;;5010300;28;20090;-59
2021/12/04 16:03:12;;;;;;;5.38;1.98;;;;;;;;;;5011971;28;20646;-58
2021/12/04 16:05:41;;;;;;;6.15;2.00;;;;;;;;;;5009820;28;20057;-58
2021/12/04 16:08:14;;;;;;;6.97;2.08;;;;;;;;;;5011762;28;20044;-57
2021/12/04 16:10:42;;;;;;;5.53;2.13;;;;;;;;;;5009784;28;20049;-60
2021/12/04 16:13:08;;;;;;;6.18;2.03;;;;;;;;;;5010108;28;20030;-59
2021/12/04 16:15:34;;;;;;;10.35;2.00;;;;;;;;;;5011174;28;20054;-58
2021/12/04 16:18:00;;;;;;;5.40;2.00;;;;;;;;;;5010790;28;21014;-59
2021/12/04 16:20:29;;;;;;;4.85;1.73;;;;;;;;;;5009149;28;20061;-59
2021/12/04 16:22:58;;;;;;;6.60;2.03;;;;;;;;;;5010054;28;20094;-56
2021/12/04 16:25:26;;;;;;;9.25;1.85;;;;;;;;;;5009636;28;20041;-60
2021/12/04 16:37:53;;;;;;;5.55;2.10;;;;;;;;;;5009532;28;20042;-59
2021/12/04 16:40:23;;;;;;;6.72;2.15;;;;;;;;;;5009893;28;20041;-58
2021/12/04 16:42:52;;;;;;;7.85;2.25;;;;;;;;;;5009255;28;20042;-60
2021/12/04 16:45:19;;;;;;;7.47;1.80;;;;;;;;;;5009621;28;20117;-58
2021/12/04 16:47:48;;;;;;;6.97;2.38;;;;;;;;;;5009532;28;20143;-57
2021/12/04 16:50:21;;;;;;;6.40;1.80;;;;;;;;;;5010557;28;20042;-59
2021/12/04 16:58:17;;;;;;;5.38;1.55;;;;;;;;;;5011038;28;20372;-59
2021/12/04 17:00:45;;;;;;;8.93;2.13;;;;;;;;;;5008653;28;20095;-59
2021/12/04 17:03:11;;;;;;;6.88;2.47;;;;;;;;;;4991323;28;20037;-59
2021/12/04 17:05:37;;;;;;;5.82;1.85;;;;;;;;;;5008485;28;20111;-58
2021/12/04 17:08:03;;;;;;;8.95;2.28;;;;;;;;;;5009408;28;20089;-56
2021/12/04 17:10:30;;;;;;;8.32;2.58;;;;;;;;;;5009372;28;20052;-58
2021/12/04 17:12:56;;;;;;;12.18;2.60;;;;;;;;;;5009664;28;20033;-57
2021/12/04 17:15:22;;;;;;;5.95;2.15;;;;;;;;;;5008105;28;20081;-58
2021/12/04 17:17:48;;;;;;;7.25;2.20;;;;;;;;;;5009407;28;20146;-58
2021/12/04 17:20:17;;;;;;;13.15;3.13;;;;;;;;;;5008863;28;20045;-59
2021/12/04 17:22:43;;;;;;;8.73;2.40;;;;;;;;;;5007892;28;20048;-59
2021/12/04 17:25:09;;;;;;;18.40;3.75;;;;;;;;;;5009661;28;20621;-59
2021/12/04 17:27:35;;;;;;;10.20;3.15;;;;;;;;;;5007132;28;20455;-58
2021/12/04 17:30:02;;;;;;;12.25;2.60;;;;;;;;;;5007950;28;20426;-59
2021/12/04 17:32:29;;;;;;;10.23;2.90;;;;;;;;;;5007874;28;20116;-58
2021/12/04 17:34:56;;;;;;;10.60;3.85;;;;;;;;;;5009508;28;20107;-59
2021/12/04 17:37:28;;;;;;;7.93;3.20;;;;;;;;;;5010657;28;20051;-59
2021/12/04 17:39:55;;;;;;;9.75;3.10;;;;;;;;;;5009440;28;20255;-59
2021/12/04 17:42:23;;;;;;;8.85;2.67;;;;;;;;;;5008105;28;20040;-58
2021/12/04 17:44:49;;;;;;;19.45;2.60;;;;;;;;;;5011912;28;20107;-57
2021/12/04 17:47:15;;;;;;;9.07;3.10;;;;;;;;;;5009748;28;21239;-55
2021/12/04 17:49:41;;;;;;;9.15;2.90;;;;;;;;;;5009276;28;20132;-56
2021/12/04 17:52:07;;;;;;;8.43;2.40;;;;;;;;;;5008454;28;20116;-58
2021/12/04 17:54:33;;;;;;;7.55;2.65;;;;;;;;;;5009103;28;20049;-59
2021/12/04 17:56:59;;;;;;;13.50;2.35;;;;;;;;;;5010087;28;20095;-59
2021/12/04 17:59:28;;;;;;;5.95;2.53;;;;;;;;;;5008381;28;20430;-58
2021/12/04 18:01:59;;;;;;;6.93;2.25;;;;;;;;;;5006224;28;20033;-58
2021/12/04 18:04:28;;;;;;;8.57;2.20;;;;;;;;;;5008453;28;20089;-58
2021/12/04 18:06:55;;;;;;;7.95;1.75;;;;;;;;;;5009706;28;20025;-57